This site, now in its 15th season, is a labour of love and fun from one of Ottawa's most avid time trialists and number crunchers. It adheres to and is permitted by the laws of Canada, promotes the objectives of every bicycle club whose results are shown, and is donated free of charge by myself for your enjoyment and usage. If you would like results from series you ride in to be shown here, give me (celia@drmath.ca) a shout!


Index Page
ATT OTT WTT AATT CFCTT VVVTT
Help resultformat:
Case-sensitive

OBC Open TT Series - 2018-Aug-09 - 15km (Rockliffe Pkwy)

Ottawa Weather (18:00): Mostly Cloudy. Temp.erature: 24.7C, Wind: SW 14 gust 27km/h, Humidex: 32, Relative humidity: 74%, Dew point: 20C, Pressure: 100.8kPa, Visibility: 24km.
Ottawa Weather (19:00): Mostly Cloudy. Temp.erature: 23.5C, Wind: W 16km/h, Humidex: 31, Relative humidity: 79%, Dew point: 20C, Pressure: 100.8kPa, Visibility: 24km.
Ottawa Weather (20:00): Mostly Cloudy. Temp.erature: 23.0C, Wind: W 12km/h, Humidex: 30, Relative humidity: 77%, Dew point: 19C, Pressure: 100.9kPa, Visibility: 24km.

Send photos with description (when/where/what) of yourself on or off of bike to celia@drmath.ca

 
 

BESTS?
 
1 Rendall, Glen  RWR 19:38 45.840 1/57 VBM 1/8 0.9772
2 Monnink, Jordan IND 19:46 45.531 2/57 SEM 1/6  
3 Boileau, Greg NTF 20:00 45.000 3/57 VAM 1/5 1.0101
4 Pérès, Erwan IND 20:20 44.262 4/57 VBM 2/8 1.0074
5 Katz, Joel  OBC/RWR 20:24 44.118 5/57 VDM 1/8 0.9613
6 Brodeur, Martin OBC 20:25 44.082 6/57 VBM 3/8 0.9637
7 Tsilemos, Jim RWR 20:37 43.654 7/57 VBM 4/8 1.0694
8 Moon, Clay RWR 20:49 43.235 8/57 SEM 2/6 0.9183
9 Burge, Craig  CYC 20:52 43.131 9/57 VCM 1/11 1.1195
10 Lafleur, Guillaume OBC 20:54 43.062 10/57 VAM 2/5 1.0217
11 Schuck, Peter  OBC/RWR 21:05 42.688 11/57 VDM 2/8 0.9906
12 Ross, Ron CLG 21:11 42.486 12/57 VCM 2/11 0.9906
13 Girard, Nicolas OBC 21:34 41.731 13/57 CAM 1/1 1.0210
14 Page, Graham OBC/NTF 21:45 41.379 14/57 VAM 3/5 0.9348
15 Mullington, Chris WQW 21:46 41.348 15/57 VDM 3/8 0.8810
16 Gelinas, Brandon IND 21:47 41.316 16/57 SEM 3/6 0.9571
17 Burge, Larry  OBC 22:04 40.785 17/57 VCM 3/11 1.0366
18 Budgell, Glen  OBC 22:06 40.724 18/57 VDM 4/8 0.9887
19 Till, Michael WQW 22:14 40.480 19/57 VCM 4/11 0.9866
20 Lacroix, Jacob OBC 22:23 40.208 20/57 JUM 1/1 0.8883
21 Thompson, William OBC 22:26 40.119 21/57 VCM 5/11 0.9867
22 Martin, Luc RDO 22:30 40.000 22/57 VCM 6/11 1.0682
23 Deschamps, Martin WQW 22:36 39.823 23/57 VBM 5/8 1.0404
Wright, David OBC 22:36 39.823 23/57 VCM 7/11 0.9650
25 Clarke, Shawn SRC/CYC 22:48 39.474 25/57 VAM 4/5 0.9675
26 Posthuma, Hans  OBC 22:56 39.244 26/57 VDM 5/8 1.0375
27 Larocque, Mathyeu IND 22:59 39.159 27/57 SEM 4/6  
28 Lawrence, Will OBC 23:13 38.765 28/57 SEM 5/6 0.9102
29 Davis, Doug OBC 23:17 38.654 29/57 VCM 8/11 1.0021
Momtahan, Parham  OBC 23:17 38.654 29/57 VDM 6/8 0.9639
31 Messier, Jill WQW 23:19 38.599 31/57 SEF 1/1 0.9703
32 Gustyn, Andrew EUR 23:29 38.325 32/57 VCM 9/11 1.0944
33 Basu, Ben  OBC 23:30 38.298 33/57 VBM 6/8 0.9581
34 Meyer, Lisa  EUR 23:38 38.082 34/57 VCF 1/3 0.9563
35 Buffa, Alex  OBC 23:42 37.975 35/57 VBM 7/8 1.0043
36 Lavergne, Jazmine OBC 23:52 37.709 36/57 CAF 1/1 1.0253
Morvan, Jacques  OBC 23:52 37.709 36/57 VEM 1/5 0.8911
38 Moerman, Bram  OBC 23:53 37.683 38/57 VEM 2/5 0.9751
39 Boulanger, Gaetan  IND 24:37 36.561 39/57 VEM 3/5 0.9560
40 Véronneau, Marc OBC 24:41 36.462 40/57 VCM 10/11 0.9522
41 Lafrance, Linda OBC 24:47 36.315 41/57 VCF 2/3 0.9681
42 Burdett, Avery  OBC 24:56 36.096 42/57 VEM 4/5 1.0406
43 Beauchamp, Angela  EUR 25:13 35.691 43/57 VBF 1/1 1.1324
44 Shand, Peter OBC 25:27 35.363 44/57 VDM 7/8 0.9863
45 Grace, Darrin  EUR 25:39 35.088 45/57 VCM 11/11  
46 Gervais, Dominique OBC 25:53 34.771 46/57 JUF 1/2 0.8867
47 Levi, Cheryl OBC 26:22 34.134 47/57 VCF 3/3 0.9868
48 Simpson, Bob OBC 26:32 33.920 48/57 VEM 5/5  
49 Jolly, Mangesh EUR 26:50 33.540 49/57 VAM 5/5  
50 Tardif, Magalie OBC 26:53 33.478 50/57 JUF 2/2 0.9742
51 Lavergne, Jayde OBC 26:58 33.375 51/57 MIF 1/1 0.8792
52 McInnis, Celia  OBC/ABC 27:09 33.149 52/57 VDF 1/1 0.9744
53 O'Loan, Tim OBC 27:41 32.511 53/57 VBM 8/8 1.0703
54 Patterson, Craig OBC 27:45 32.432 54/57 SEM 6/6 1.0018
55 Monette, Gary WQW 28:12 31.915 55/57 VDM 8/8 0.8875
56 Deveer, Carter OBC 32:47 27.453 56/57 MIM 1/1 0.7336
57 Deveer, Cooper OBC 37:03 24.291 57/57 BBM 1/1 0.5388
 
Average Speed of all of the above 57 finishes (855km in 22:34:58):37.861
>>>Average of the Average Speeds for these 57 finishes38.416<<<
 

The number of data records shown above is 57
The server processing of your query took: 0 wallclock secs ( 0.07 usr + 0.01 sys = 0.08 CPU)

Thanks to our Helpers: Mark Manners, Alex McKnight, Jess Raymond, Peter Tregunno

     


Mar 30 (Good Friday)
May 1 (10km) May 3 May 8 (10km) May 10 May 15 (10km) May 17 May 22 (10km) May 24 May 29 (10km) May 31
Jun 5 Jun 5 Jun 7 Jun 12 Jun 12 Jun 14 Jun 17 (40km) Jun 19 Jun 19 Jun 21 Jun 26 Jun 26 Jun 28
Jul 3 Jul 3 Jul 5 Jul 8 (40km) Jul 10 Jul 10 Jul 12 Jul 17 Jul 17 Jul 19 Jul 24 Jul 24 Jul 26 Jul 31 Jul 31
Aug 2 Aug 5 (40km) Aug 7 Aug 7
  Aug 9  
Aug 14 Aug 14 Aug 16 Aug 21 Aug 21 Aug 23 Aug 28 Aug 28 (Invitational) Aug 30#1 (Eddie Merckx) Aug 30#2 (With Aero)
Sep 2 (40km) Sep 4 Sep 6 Sep 11 Sep 13 Sep 18

OTT Rankings
Best       Best by category
WTT Rankings for All Participants
5 Best Speeds (≥3 15km, ≤1 10km)     5 Best Speeds (≥3 15km, ≤1 10km) by category
OTT Best Three 15km Rankings
Overall     by category     age-Hcap Female   age-Hcap Male
Other years
TT Calculator All TT People All TT events
ABC Home VVV Home
CKAP GOLD MEDAL
Other Links

Note: OTT data from 2003 through 2006-Apr-14 and 2007-Apr-06-? and WTT from 2008-? is taken from the official OBC site.

Please send your comments and suggestions to: Celia McInnis
Copyright © 1998-2011 Celia McInnis. All rights reserved. Links are welcomed.